Time;durP1;ratioP1;P1;durP2;ratioP2;P2;SDS_P1;SDS_P2;PMS_P1;PMS_P2;Temp;Humidity;BMP_temperature;BMP_pressure;BME280_temperature;BME280_humidity;BME280_pressure;Samples;Min_cycle;Max_cycle;Signal;HPM_P1;HPM_P2
2021/12/14 00:01:23;;;;;;;14.10;10.70;;;4.80;99.90;;;;;;5015615;28;20219;-72
2021/12/14 00:03:53;;;;;;;14.10;9.05;;;4.90;99.90;;;;;;5032226;28;20537;-73
2021/12/14 00:06:20;;;;;;;18.63;10.13;;;5.00;99.90;;;;;;5014545;28;20173;-73
2021/12/14 00:08:53;;;;;;;13.20;9.38;;;5.00;99.90;;;;;;5011007;28;20220;-73
2021/12/14 00:14:11;;;;;;;15.85;10.13;;;5.10;99.90;;;;;;5016971;28;20185;-72
2021/12/14 00:16:37;;;;;;;13.75;9.85;;;5.20;99.90;;;;;;5012412;28;20177;-73
2021/12/14 00:19:03;;;;;;;13.45;9.45;;;5.20;99.90;;;;;;5020793;28;20254;-73
2021/12/14 00:21:30;;;;;;;13.77;9.05;;;5.10;99.90;;;;;;5016258;28;20200;-73
2021/12/14 00:24:14;;;;;;;11.50;9.13;;;5.10;99.90;;;;;;5012078;28;20181;-72
2021/12/14 00:26:42;;;;;;;9.85;8.10;;;5.10;99.90;;;;;;5012250;28;20182;-73
2021/12/14 00:29:12;;;;;;;12.68;9.23;;;5.20;99.90;;;;;;5012173;28;20201;-72
2021/12/14 00:31:38;;;;;;;13.48;9.38;;;5.00;99.90;;;;;;5017365;28;20180;-72
2021/12/14 00:34:05;;;;;;;15.35;9.93;;;4.90;99.90;;;;;;5031928;28;20176;-73
2021/12/14 00:36:31;;;;;;;12.50;8.93;;;4.90;99.90;;;;;;5025026;28;20892;-73
2021/12/14 00:38:57;;;;;;;14.82;10.73;;;4.70;99.90;;;;;;5015432;28;20196;-72
2021/12/14 00:41:32;;;;;;;11.65;8.52;;;4.80;99.90;;;;;;5031882;28;20204;-73
2021/12/14 00:43:59;;;;;;;15.68;10.05;;;4.90;99.90;;;;;;5031756;28;20164;-73
2021/12/14 00:46:25;;;;;;;14.38;9.75;;;4.80;99.90;;;;;;5018075;28;20557;-73
2021/12/14 00:48:51;;;;;;;16.30;10.50;;;4.80;99.90;;;;;;5014279;28;20202;-73
2021/12/14 00:51:21;;;;;;;13.90;9.95;;;4.80;99.90;;;;;;5050459;28;20234;-73
2021/12/14 00:53:48;;;;;;;14.07;9.98;;;4.70;99.90;;;;;;5051488;28;20251;-72
2021/12/14 00:56:13;;;;;;;14.82;9.95;;;4.80;99.90;;;;;;5022007;28;20280;-73
2021/12/14 00:58:39;;;;;;;12.25;9.10;;;4.90;99.90;;;;;;5027681;28;20283;-73
2021/12/14 01:01:11;;;;;;;14.25;9.02;;;4.90;99.90;;;;;;5035296;28;20208;-72
2021/12/14 01:03:39;;;;;;;11.82;8.77;;;4.90;99.90;;;;;;5021651;28;20181;-72
2021/12/14 01:06:10;;;;;;;12.07;8.95;;;4.90;99.90;;;;;;5015262;28;20582;-73
2021/12/14 01:08:40;;;;;;;11.95;7.82;;;4.70;99.90;;;;;;5015432;28;20189;-72
2021/12/14 01:11:15;;;;;;;12.57;8.43;;;4.70;99.90;;;;;;5014104;28;20555;-73
2021/12/14 01:13:50;;;;;;;15.55;8.85;;;4.70;99.90;;;;;;5015539;28;20184;-72
2021/12/14 01:16:31;;;;;;;12.52;8.60;;;4.70;99.90;;;;;;5015562;28;20180;-73
2021/12/14 01:19:12;;;;;;;12.88;9.35;;;4.80;99.90;;;;;;5018159;28;20588;-72
2021/12/14 01:25:11;;;;;;;14.32;9.85;;;4.70;99.90;;;;;;5014949;28;20177;-72
2021/12/14 01:27:15;;;;;;;15.10;9.48;;;4.70;99.90;;;;;;5014641;28;20261;-71
2021/12/14 01:29:43;;;;;;;11.55;8.48;;;4.70;99.90;;;;;;5023656;28;20572;-71
2021/12/14 01:32:09;;;;;;;13.80;9.52;;;4.80;99.90;;;;;;5018965;28;20652;-72
2021/12/14 01:34:36;;;;;;;14.55;9.75;;;4.80;99.90;;;;;;5014746;28;20699;-73
2021/12/14 01:37:08;;;;;;;12.95;8.93;;;4.60;99.90;;;;;;5014934;28;20651;-72
2021/12/14 01:42:15;;;;;;;13.07;8.80;;;4.60;99.90;;;;;;5034647;28;20236;-72
2021/12/14 01:45:07;;;;;;;11.98;9.10;;;4.60;99.90;;;;;;5034312;28;20234;-72
2021/12/14 01:47:56;;;;;;;10.18;8.65;;;4.60;99.90;;;;;;5033013;28;20664;-72
2021/12/14 01:50:30;;;;;;;13.50;8.20;;;4.60;99.90;;;;;;5045566;28;20258;-72
2021/12/14 01:52:58;;;;;;;14.32;8.68;;;4.60;99.90;;;;;;5054426;28;20199;-72
2021/12/14 01:55:27;;;;;;;10.52;8.52;;;4.60;99.90;;;;;;5041363;28;20192;-72
2021/12/14 01:57:59;;;;;;;12.55;8.20;;;4.60;99.90;;;;;;5033992;28;20663;-73
2021/12/14 02:00:33;;;;;;;10.48;8.40;;;4.60;99.90;;;;;;5032530;28;20200;-73
2021/12/14 02:03:02;;;;;;;10.75;8.20;;;4.60;99.90;;;;;;5033953;28;20192;-74
2021/12/14 02:05:32;;;;;;;11.93;9.50;;;4.50;99.90;;;;;;5020619;28;20239;-74
2021/12/14 02:08:00;;;;;;;14.50;10.32;;;4.50;99.90;;;;;;5021014;28;20739;-74
2021/12/14 02:10:33;;;;;;;12.25;9.98;;;4.50;99.90;;;;;;5033624;28;20180;-74
2021/12/14 02:13:00;;;;;;;15.57;10.07;;;4.40;99.90;;;;;;5025016;28;20231;-75
2021/12/14 02:15:34;;;;;;;11.23;8.93;;;4.40;99.90;;;;;;5014164;28;20587;-74
2021/12/14 02:18:04;;;;;;;12.25;9.68;;;4.50;99.90;;;;;;5028514;28;20709;-74
2021/12/14 02:20:35;;;;;;;21.00;10.43;;;4.50;99.90;;;;;;5032845;28;20171;-74
2021/12/14 02:23:02;;;;;;;13.50;9.35;;;4.50;99.90;;;;;;5026593;28;20181;-73
2021/12/14 02:25:27;;;;;;;10.93;8.35;;;4.50;99.90;;;;;;5031652;28;20259;-74
2021/12/14 02:27:59;;;;;;;12.30;9.07;;;4.40;99.90;;;;;;5029256;28;20214;-73
2021/12/14 02:30:29;;;;;;;10.85;9.02;;;4.40;99.90;;;;;;5030165;28;20180;-74
2021/12/14 02:32:56;;;;;;;15.20;9.68;;;4.40;99.90;;;;;;5032973;28;20259;-74
2021/12/14 02:35:25;;;;;;;10.63;8.60;;;4.40;99.90;;;;;;5032732;28;20219;-74
2021/12/14 02:37:58;;;;;;;11.77;8.80;;;4.50;99.90;;;;;;5031564;28;20280;-74
2021/12/14 02:41:01;;;;;;;12.82;8.75;;;4.60;99.90;;;;;;5031935;28;20184;-74
2021/12/14 02:43:42;;;;;;;12.75;8.70;;;4.70;99.90;;;;;;5034038;28;20180;-74
2021/12/14 02:46:25;;;;;;;11.85;9.48;;;4.70;99.90;;;;;;5033376;28;20173;-74
2021/12/14 02:48:55;;;;;;;15.05;10.15;;;4.70;99.90;;;;;;5032731;28;20208;-74
2021/12/14 02:51:24;;;;;;;14.60;10.93;;;4.80;99.90;;;;;;5052423;28;20198;-74
2021/12/14 02:53:55;;;;;;;15.77;10.80;;;4.70;99.90;;;;;;5053158;28;20179;-74
2021/12/14 02:56:23;;;;;;;16.65;10.90;;;4.70;99.90;;;;;;5041909;28;20211;-74
2021/12/14 02:58:55;;;;;;;17.17;11.65;;;4.60;99.90;;;;;;5032897;28;20203;-75
2021/12/14 03:01:20;;;;;;;20.13;14.10;;;4.60;99.90;;;;;;5033266;28;20283;-74
2021/12/14 03:03:46;;;;;;;17.67;12.40;;;4.60;99.90;;;;;;5028944;28;20260;-74
2021/12/14 03:06:18;;;;;;;15.75;11.30;;;4.50;99.90;;;;;;5012069;28;20169;-74
2021/12/14 03:08:56;;;;;;;17.42;11.93;;;4.60;99.90;;;;;;5026663;28;20239;-73
2021/12/14 03:11:23;;;;;;;14.20;10.07;;;4.60;99.90;;;;;;5033104;28;20700;-74
2021/12/14 03:13:51;;;;;;;17.98;11.35;;;4.60;99.90;;;;;;5016447;28;20571;-74
2021/12/14 03:16:23;;;;;;;14.10;10.07;;;4.60;99.90;;;;;;5019680;28;20176;-74
2021/12/14 03:18:51;;;;;;;11.38;9.35;;;4.60;99.90;;;;;;5033007;28;20196;-74
2021/12/14 03:21:27;;;;;;;12.50;8.90;;;4.60;99.90;;;;;;5017236;28;20751;-74
2021/12/14 03:24:06;;;;;;;12.38;10.05;;;4.60;99.90;;;;;;5011567;28;20174;-74
2021/12/14 03:26:35;;;;;;;11.10;9.07;;;4.50;99.90;;;;;;5019878;28;20263;-74
2021/12/14 03:29:08;;;;;;;10.93;8.95;;;4.60;99.90;;;;;;5030901;28;20199;-73
2021/12/14 03:31:40;;;;;;;12.57;9.75;;;4.60;99.90;;;;;;5012942;28;20671;-75
2021/12/14 03:34:15;;;;;;;10.35;8.63;;;4.70;99.90;;;;;;5046482;28;20193;-74
2021/12/14 03:36:49;;;;;;;13.23;8.35;;;4.60;99.90;;;;;;5032449;28;20255;-74
2021/12/14 03:39:22;;;;;;;11.93;8.65;;;4.50;99.90;;;;;;5027283;28;20201;-73
2021/12/14 03:41:53;;;;;;;11.93;8.55;;;4.40;99.90;;;;;;5012667;28;20208;-74
2021/12/14 03:44:24;;;;;;;11.10;7.88;;;4.40;99.90;;;;;;5020519;28;20172;-74
2021/12/14 03:46:55;;;;;;;11.70;8.23;;;4.40;99.90;;;;;;5031202;28;20541;-74
2021/12/14 03:49:25;;;;;;;8.88;7.90;;;4.40;99.90;;;;;;5035170;28;20191;-73
2021/12/14 03:51:51;;;;;;;8.50;7.53;;;4.50;99.90;;;;;;5050910;28;20253;-75
2021/12/14 03:54:18;;;;;;;8.80;7.80;;;4.60;99.90;;;;;;5035210;28;20673;-73
2021/12/14 03:56:45;;;;;;;9.07;7.55;;;4.60;99.90;;;;;;5030065;28;20196;-74
2021/12/14 03:59:11;;;;;;;8.73;7.10;;;4.60;99.90;;;;;;5031022;28;20216;-73
2021/12/14 04:01:42;;;;;;;10.32;7.63;;;4.50;99.90;;;;;;5032167;28;20648;-73
2021/12/14 04:04:30;;;;;;;8.70;7.35;;;4.50;99.90;;;;;;5030960;28;20259;-73
2021/12/14 04:06:58;;;;;;;9.20;7.55;;;4.40;99.90;;;;;;5012640;28;20201;-74
2021/12/14 04:09:27;;;;;;;8.02;6.90;;;4.40;99.90;;;;;;5012349;28;20280;-74
2021/12/14 04:11:53;;;;;;;8.20;6.57;;;4.40;99.90;;;;;;5021531;28;20173;-74
2021/12/14 04:14:20;;;;;;;8.90;6.90;;;4.40;99.90;;;;;;5030619;28;20721;-73
2021/12/14 04:16:49;;;;;;;8.38;7.07;;;4.30;99.90;;;;;;5031980;28;20183;-73
2021/12/14 04:19:21;;;;;;;8.32;7.25;;;4.30;99.90;;;;;;5031879;28;20234;-73
2021/12/14 04:21:47;;;;;;;7.72;6.93;;;4.30;99.90;;;;;;5029527;28;20212;-74
2021/12/14 04:24:14;;;;;;;9.52;7.10;;;4.30;99.90;;;;;;5029656;28;20195;-73
2021/12/14 04:26:44;;;;;;;8.00;6.82;;;4.30;99.90;;;;;;5031643;28;20176;-72
2021/12/14 04:29:12;;;;;;;7.90;7.07;;;4.30;99.90;;;;;;5031649;28;20708;-73
2021/12/14 04:31:38;;;;;;;8.95;6.78;;;4.20;99.90;;;;;;5030516;28;20183;-73
2021/12/14 04:34:04;;;;;;;8.23;7.10;;;4.20;99.90;;;;;;5034269;28;20297;-74
2021/12/14 04:36:30;;;;;;;8.60;6.65;;;4.20;99.90;;;;;;5035201;28;20805;-74
2021/12/14 04:39:03;;;;;;;9.30;7.32;;;4.20;99.90;;;;;;5035757;28;20229;-74
2021/12/14 04:52:34;;;;;;;10.65;8.07;;;4.50;99.90;;;;;;5043254;28;20207;-74
2021/12/14 04:55:04;;;;;;;9.77;7.65;;;4.60;99.90;;;;;;5034978;28;20196;-74
2021/12/14 04:57:32;;;;;;;9.95;7.97;;;4.60;99.90;;;;;;5035759;28;20184;-74
2021/12/14 05:00:14;;;;;;;8.70;7.43;;;4.60;99.90;;;;;;5035437;28;20254;-74
2021/12/14 05:02:40;;;;;;;10.40;8.07;;;4.60;99.90;;;;;;5033754;28;20204;-73
2021/12/14 05:05:07;;;;;;;8.30;6.95;;;4.60;99.90;;;;;;5035013;28;20176;-73
2021/12/14 05:10:08;;;;;;;9.98;7.72;;;4.40;99.90;;;;;;5034876;28;20199;-75
2021/12/14 05:12:37;;;;;;;10.63;7.78;;;4.30;99.90;;;;;;5034195;28;20275;-73
2021/12/14 05:15:08;;;;;;;11.40;8.02;;;4.30;99.90;;;;;;5034087;28;20184;-73
2021/12/14 05:17:36;;;;;;;8.82;7.18;;;4.20;99.90;;;;;;5034145;28;20180;-72
2021/12/14 05:20:05;;;;;;;8.32;7.45;;;4.20;99.90;;;;;;5033135;28;20636;-73
2021/12/14 05:22:38;;;;;;;8.50;7.70;;;4.20;99.90;;;;;;5032979;28;20227;-73
2021/12/14 05:25:10;;;;;;;10.90;7.45;;;4.20;99.90;;;;;;5033671;28;20179;-72
2021/12/14 05:27:46;;;;;;;8.70;7.85;;;4.30;99.90;;;;;;5033598;28;20196;-73
2021/12/14 05:30:15;;;;;;;14.88;8.30;;;4.30;99.90;;;;;;5031126;28;20207;-73
2021/12/14 05:32:43;;;;;;;9.80;8.30;;;4.20;99.90;;;;;;5032576;28;20245;-73
2021/12/14 05:35:12;;;;;;;12.18;7.78;;;4.20;99.90;;;;;;5033682;28;20176;-73
2021/12/14 05:37:46;;;;;;;10.60;8.32;;;4.30;99.90;;;;;;5033911;28;20232;-71
2021/12/14 05:40:35;;;;;;;12.93;8.00;;;4.30;99.90;;;;;;5031190;28;20713;-73
2021/12/14 05:43:18;;;;;;;9.20;7.05;;;4.30;99.90;;;;;;5032791;28;20184;-72
2021/12/14 05:45:47;;;;;;;7.30;6.57;;;4.30;99.90;;;;;;5032928;28;20269;-72
2021/12/14 05:48:20;;;;;;;7.50;6.38;;;4.30;99.90;;;;;;5032258;28;20725;-73
2021/12/14 05:50:55;;;;;;;8.75;6.20;;;4.40;99.90;;;;;;5033163;28;20606;-73
2021/12/14 05:53:24;;;;;;;7.40;6.60;;;4.40;99.90;;;;;;5032037;28;20176;-73
2021/12/14 05:55:51;;;;;;;7.22;6.35;;;4.30;99.90;;;;;;5033057;28;20692;-72
2021/12/14 05:58:20;;;;;;;7.85;6.70;;;4.40;99.90;;;;;;5034164;28;20236;-72
2021/12/14 06:00:53;;;;;;;6.32;5.72;;;4.40;99.90;;;;;;5033430;28;20229;-73
2021/12/14 06:03:27;;;;;;;10.75;7.30;;;4.40;99.90;;;;;;5033439;28;20188;-73
2021/12/14 06:05:54;;;;;;;8.13;6.72;;;4.30;99.90;;;;;;5014208;28;20243;-73
2021/12/14 06:08:26;;;;;;;9.50;7.45;;;4.20;99.90;;;;;;5016188;28;20189;-73
2021/12/14 06:10:53;;;;;;;6.15;5.43;;;4.20;99.90;;;;;;5034164;28;20169;-73
2021/12/14 06:13:20;;;;;;;8.50;7.22;;;4.30;99.90;;;;;;5032799;28;20177;-73
2021/12/14 06:15:46;;;;;;;7.30;5.32;;;4.20;99.90;;;;;;5033719;28;20270;-73
2021/12/14 06:18:20;;;;;;;7.18;5.55;;;4.40;99.90;;;;;;5033604;28;20685;-73
2021/12/14 06:20:46;;;;;;;5.07;4.57;;;4.40;99.90;;;;;;5030458;28;20215;-73
2021/12/14 06:23:12;;;;;;;5.13;4.63;;;4.50;99.90;;;;;;5032724;28;20188;-72
2021/12/14 06:25:39;;;;;;;6.75;5.20;;;4.40;99.90;;;;;;5033700;28;20177;-73
2021/12/14 06:28:05;;;;;;;9.60;6.13;;;4.40;99.90;;;;;;5033646;28;20220;-73
2021/12/14 06:30:34;;;;;;;7.80;5.90;;;4.30;99.90;;;;;;5032206;28;20223;-73
2021/12/14 06:33:06;;;;;;;8.93;6.20;;;4.30;99.90;;;;;;5033938;28;20203;-72
2021/12/14 06:35:45;;;;;;;9.70;6.97;;;4.40;99.90;;;;;;5033285;28;20180;-73
2021/12/14 06:38:33;;;;;;;7.10;5.15;;;4.50;99.90;;;;;;5033541;28;20202;-73
2021/12/14 06:41:07;;;;;;;9.73;5.93;;;4.40;99.90;;;;;;5013629;28;20247;-73
2021/12/14 06:43:38;;;;;;;9.25;5.75;;;4.40;99.90;;;;;;5013790;28;20226;-73
2021/12/14 06:46:16;;;;;;;7.77;6.17;;;4.30;99.90;;;;;;5013544;28;20175;-73
2021/12/14 06:48:47;;;;;;;7.15;5.78;;;4.30;99.90;;;;;;5026576;28;20295;-72
2021/12/14 06:51:15;;;;;;;7.90;6.60;;;4.40;99.90;;;;;;5051174;28;20172;-73
2021/12/14 06:53:42;;;;;;;10.73;6.60;;;4.50;99.90;;;;;;5031825;28;20216;-72
2021/12/14 06:56:11;;;;;;;9.90;7.10;;;4.50;99.90;;;;;;5032945;28;20199;-71
2021/12/14 06:58:47;;;;;;;10.27;6.47;;;4.50;99.90;;;;;;5020741;28;20267;-72
2021/12/14 07:01:28;;;;;;;9.25;6.82;;;4.50;99.90;;;;;;5028673;28;20200;-72
2021/12/14 07:04:06;;;;;;;11.02;7.10;;;4.60;99.90;;;;;;5032815;28;20586;-72
2021/12/14 07:06:49;;;;;;;9.20;6.15;;;4.70;99.90;;;;;;5031266;28;20648;-71
2021/12/14 07:09:29;;;;;;;8.73;6.55;;;4.70;99.90;;;;;;5031768;28;20664;-71
2021/12/14 07:12:05;;;;;;;8.25;6.38;;;4.70;99.90;;;;;;5032511;28;20246;-72
2021/12/14 07:14:31;;;;;;;8.27;6.72;;;4.50;99.90;;;;;;5030943;28;20288;-72
2021/12/14 07:17:10;;;;;;;10.60;7.35;;;4.50;99.90;;;;;;5027611;28;20268;-73
2021/12/14 07:19:54;;;;;;;12.18;6.60;;;4.40;99.90;;;;;;5023592;28;20241;-74
2021/12/14 07:22:24;;;;;;;10.02;6.68;;;4.40;99.90;;;;;;5016243;28;20220;-72
2021/12/14 07:25:15;;;;;;;10.20;7.40;;;4.50;99.90;;;;;;5012699;28;20173;-72
2021/12/14 07:27:47;;;;;;;9.73;7.38;;;4.60;99.90;;;;;;5027042;28;20184;-72
2021/12/14 07:30:19;;;;;;;12.10;8.60;;;4.60;99.90;;;;;;5030644;28;20582;-72
2021/12/14 07:32:59;;;;;;;9.77;7.18;;;4.50;99.90;;;;;;5031754;28;20192;-71
2021/12/14 07:35:31;;;;;;;10.35;6.70;;;4.60;99.90;;;;;;5029915;28;20180;-72
2021/12/14 07:38:04;;;;;;;9.17;7.30;;;4.70;99.90;;;;;;5022479;28;20197;-71
2021/12/14 07:40:37;;;;;;;10.40;7.70;;;4.70;99.90;;;;;;5029219;28;20223;-73
2021/12/14 07:43:16;;;;;;;10.87;6.93;;;4.70;99.90;;;;;;5031777;28;20184;-70
2021/12/14 07:45:43;;;;;;;9.60;7.63;;;4.70;99.90;;;;;;5031808;28;20173;-72
2021/12/14 07:48:08;;;;;;;9.83;6.80;;;4.60;99.90;;;;;;5013472;28;20220;-72
2021/12/14 07:51:01;;;;;;;10.18;6.68;;;4.70;99.90;;;;;;5043072;28;20639;-72
2021/12/14 07:53:40;;;;;;;8.90;6.35;;;4.60;99.90;;;;;;5028516;28;20623;-72
2021/12/14 07:56:06;;;;;;;11.30;6.45;;;4.60;99.90;;;;;;5030320;28;20184;-74
2021/12/14 07:58:42;;;;;;;9.30;7.55;;;4.70;99.90;;;;;;5027957;28;20571;-72
2021/12/14 08:01:09;;;;;;;10.23;7.13;;;4.50;99.90;;;;;;5030634;28;20211;-75
2021/12/14 08:03:37;;;;;;;10.13;7.00;;;4.60;99.90;;;;;;5031738;28;20200;-75
2021/12/14 08:06:06;;;;;;;9.57;7.43;;;4.60;99.90;;;;;;5031435;28;20177;-75
2021/12/14 08:08:48;;;;;;;10.67;6.07;;;4.60;99.90;;;;;;5030443;28;20209;-78
2021/12/14 08:14:00;;;;;;;9.55;6.63;;;4.60;99.90;;;;;;5031782;28;20176;-75
2021/12/14 08:16:25;;;;;;;10.63;7.33;;;4.50;99.90;;;;;;5030681;28;20190;-75
2021/12/14 08:18:51;;;;;;;8.13;6.63;;;4.50;99.90;;;;;;5029403;28;20286;-75
2021/12/14 08:21:25;;;;;;;8.82;6.20;;;4.60;99.90;;;;;;5031022;28;20262;-75
2021/12/14 08:24:01;;;;;;;5.97;4.72;;;4.50;99.90;;;;;;5030716;28;20222;-75
2021/12/14 08:26:29;;;;;;;6.97;5.88;;;4.60;99.90;;;;;;5027652;28;20579;-75
2021/12/14 08:29:03;;;;;;;6.07;5.47;;;4.70;99.90;;;;;;5029738;28;20205;-74
2021/12/14 08:31:48;;;;;;;5.67;5.07;;;4.60;99.90;;;;;;5030518;28;20256;-74
2021/12/14 08:34:20;;;;;;;5.68;4.30;;;4.60;99.90;;;;;;5031329;28;20184;-73
2021/12/14 08:36:58;;;;;;;5.40;4.68;;;4.60;99.90;;;;;;5029610;28;20211;-75
2021/12/14 08:39:28;;;;;;;5.60;5.05;;;4.60;99.90;;;;;;5031694;28;20235;-75
2021/12/14 08:42:32;;;;;;;4.95;4.55;;;4.60;99.90;;;;;;5030617;28;20663;-75
2021/12/14 08:45:00;;;;;;;6.00;4.35;;;4.60;99.90;;;;;;5044221;28;20185;-75
2021/12/14 08:47:33;;;;;;;5.07;4.60;;;4.60;99.90;;;;;;5031552;28;20521;-75
2021/12/14 08:50:05;;;;;;;4.90;4.40;;;4.50;99.90;;;;;;5039785;28;20183;-74
2021/12/14 08:52:31;;;;;;;5.57;5.07;;;4.50;99.90;;;;;;5041552;28;20556;-75
2021/12/14 08:54:59;;;;;;;4.65;4.20;;;4.60;99.90;;;;;;5011567;28;20590;-73
2021/12/14 08:57:29;;;;;;;6.78;5.18;;;4.60;99.90;;;;;;5013306;28;20523;-74
2021/12/14 09:00:08;;;;;;;6.00;4.82;;;4.70;99.90;;;;;;5028594;28;20231;-73
2021/12/14 09:02:34;;;;;;;6.10;4.45;;;4.60;99.90;;;;;;5030902;28;20200;-74
2021/12/14 09:05:17;;;;;;;6.07;4.85;;;4.70;99.90;;;;;;5031451;28;20660;-75
2021/12/14 09:07:44;;;;;;;5.32;4.82;;;4.70;99.90;;;;;;5031290;28;20193;-73
2021/12/14 09:10:15;;;;;;;5.38;4.88;;;4.70;99.90;;;;;;5030298;28;20183;-71
2021/12/14 09:12:44;;;;;;;7.82;5.60;;;4.70;99.90;;;;;;5030962;28;20246;-74
2021/12/14 09:15:15;;;;;;;6.85;5.35;;;4.80;99.90;;;;;;5031412;28;20165;-73
2021/12/14 09:17:41;;;;;;;7.22;5.05;;;4.80;99.90;;;;;;5029938;28;20201;-74
2021/12/14 09:20:30;;;;;;;7.68;5.82;;;4.70;99.90;;;;;;5032731;28;20252;-74
2021/12/14 09:23:00;;;;;;;7.95;6.00;;;4.80;99.90;;;;;;5033751;28;20263;-73
2021/12/14 09:25:29;;;;;;;6.93;5.72;;;4.90;99.90;;;;;;5034470;28;20169;-76
2021/12/14 09:27:59;;;;;;;8.05;6.43;;;4.80;99.90;;;;;;5030046;28;20247;-76
2021/12/14 09:30:29;;;;;;;9.48;7.72;;;4.70;99.90;;;;;;5032981;28;20176;-77
2021/12/14 09:32:55;;;;;;;9.18;7.45;;;4.80;99.90;;;;;;5033175;28;20172;-76
2021/12/14 09:35:27;;;;;;;9.60;7.80;;;4.90;99.90;;;;;;5030076;28;20656;-76
2021/12/14 09:37:55;;;;;;;7.13;5.63;;;4.90;99.90;;;;;;5034602;28;20188;-78
2021/12/14 09:40:43;;;;;;;13.15;8.70;;;4.80;99.90;;;;;;5033147;28;20661;-78
2021/12/14 09:43:10;;;;;;;12.73;8.27;;;4.80;99.90;;;;;;5034251;28;20193;-75
2021/12/14 09:45:42;;;;;;;11.23;6.85;;;4.90;99.90;;;;;;5018255;28;20243;-76
2021/12/14 09:48:13;;;;;;;11.57;8.32;;;4.90;99.90;;;;;;5029449;28;20710;-76
2021/12/14 09:50:42;;;;;;;10.15;7.00;;;5.00;99.90;;;;;;5048158;28;20314;-75
2021/12/14 09:53:11;;;;;;;9.50;6.50;;;4.90;99.90;;;;;;5028478;28;20204;-76
2021/12/14 09:55:42;;;;;;;11.88;7.57;;;4.90;99.90;;;;;;5028501;28;20252;-74
2021/12/14 09:58:25;;;;;;;10.63;6.97;;;4.80;99.90;;;;;;5033593;28;20193;-74
2021/12/14 10:01:05;;;;;;;7.85;6.20;;;4.90;99.90;;;;;;5032126;28;20235;-73
2021/12/14 10:03:31;;;;;;;8.02;6.55;;;5.00;99.90;;;;;;5029243;28;20192;-72
2021/12/14 10:06:05;;;;;;;7.55;6.30;;;5.00;99.90;;;;;;5032547;28;20223;-71
2021/12/14 10:08:35;;;;;;;6.60;5.70;;;5.00;99.90;;;;;;5033834;28;20231;-72
2021/12/14 10:11:09;;;;;;;10.27;7.07;;;4.90;99.90;;;;;;5030047;28;20208;-72
2021/12/14 10:13:39;;;;;;;5.70;5.05;;;4.80;99.90;;;;;;5030271;28;20905;-72
2021/12/14 10:16:06;;;;;;;7.50;5.30;;;4.80;99.90;;;;;;5031672;28;21429;-72
2021/12/14 10:18:45;;;;;;;6.47;4.93;;;4.90;99.90;;;;;;5031707;28;20851;-72
2021/12/14 10:21:16;;;;;;;10.20;6.05;;;5.00;99.90;;;;;;5016725;28;20292;-72
2021/12/14 10:23:43;;;;;;;10.68;8.00;;;4.90;99.90;;;;;;5031549;28;20173;-72
2021/12/14 10:26:10;;;;;;;12.25;8.25;;;4.90;99.90;;;;;;5028594;28;20601;-72
2021/12/14 10:28:39;;;;;;;12.27;8.10;;;5.00;99.90;;;;;;5031848;28;20199;-72
2021/12/14 10:31:12;;;;;;;8.20;7.10;;;5.10;99.90;;;;;;5031761;28;20732;-72
2021/12/14 10:33:42;;;;;;;7.22;6.38;;;5.20;99.90;;;;;;5032927;28;20173;-72
2021/12/14 10:36:27;;;;;;;7.78;6.07;;;5.30;99.90;;;;;;5028745;28;20184;-71
2021/12/14 10:39:23;;;;;;;8.60;6.50;;;5.20;99.90;;;;;;5032828;28;20201;-72
2021/12/14 10:44:42;;;;;;;7.28;5.60;;;5.10;99.90;;;;;;5031699;28;20686;-72
2021/12/14 10:47:10;;;;;;;10.07;6.93;;;5.10;99.90;;;;;;5031682;28;20180;-71
2021/12/14 10:49:36;;;;;;;6.85;5.30;;;5.10;99.90;;;;;;5034158;28;20200;-72
2021/12/14 10:52:06;;;;;;;5.05;3.92;;;5.10;99.90;;;;;;5039852;28;20284;-72
2021/12/14 10:54:34;;;;;;;6.75;5.72;;;5.00;99.90;;;;;;5030590;28;20189;-71
2021/12/14 10:57:12;;;;;;;9.35;7.57;;;4.90;99.90;;;;;;5030817;28;20169;-72
2021/12/14 10:59:41;;;;;;;8.35;7.03;;;4.70;99.90;;;;;;5025250;28;20224;-71
2021/12/14 11:02:08;;;;;;;7.40;5.20;;;4.60;99.90;;;;;;5031396;28;20208;-71
2021/12/14 11:04:51;;;;;;;7.65;6.00;;;4.60;99.90;;;;;;5030932;28;20169;-71
2021/12/14 11:07:22;;;;;;;8.07;6.68;;;4.60;99.90;;;;;;5029456;28;20636;-71
2021/12/14 11:09:53;;;;;;;7.85;6.43;;;4.60;99.90;;;;;;5032011;28;20263;-72
2021/12/14 11:12:27;;;;;;;10.43;6.67;;;4.60;99.90;;;;;;5032489;28;20180;-71
2021/12/14 11:15:00;;;;;;;10.30;7.28;;;4.50;99.90;;;;;;5032500;28;20677;-71
2021/12/14 11:20:20;;;;;;;6.93;5.80;;;4.80;99.90;;;;;;5032563;28;20195;-71
2021/12/14 11:22:50;;;;;;;6.28;5.57;;;4.90;99.90;;;;;;5030399;28;20266;-71
2021/12/14 11:25:22;;;;;;;5.93;5.03;;;5.00;99.90;;;;;;5030700;28;20211;-72
2021/12/14 11:27:53;;;;;;;4.88;3.95;;;4.90;99.90;;;;;;5031826;28;20199;-72
2021/12/14 11:30:32;;;;;;;4.22;3.83;;;4.80;99.90;;;;;;5031424;28;20184;-71
2021/12/14 11:33:17;;;;;;;4.75;3.78;;;4.70;99.90;;;;;;5032357;28;20172;-72
2021/12/14 11:35:57;;;;;;;4.05;3.65;;;4.70;99.90;;;;;;5012668;28;20173;-72
2021/12/14 11:38:35;;;;;;;3.90;3.50;;;4.80;99.90;;;;;;5032241;28;20201;-70
2021/12/14 11:41:19;;;;;;;4.50;3.60;;;5.00;99.90;;;;;;5030903;28;20744;-70
2021/12/14 11:43:53;;;;;;;5.35;3.97;;;5.20;99.90;;;;;;5027293;28;20280;-70
2021/12/14 11:46:20;;;;;;;3.40;3.10;;;5.20;99.90;;;;;;5015328;28;20690;-71
2021/12/14 11:48:46;;;;;;;4.50;4.10;;;5.20;99.90;;;;;;5032229;28;20203;-71
2021/12/14 11:51:12;;;;;;;4.10;3.70;;;5.10;99.90;;;;;;5035527;28;20189;-71
2021/12/14 11:53:38;;;;;;;4.50;3.55;;;5.10;99.90;;;;;;5031640;28;20207;-71
2021/12/14 11:56:11;;;;;;;4.78;3.78;;;5.10;99.90;;;;;;5031444;28;20181;-71
2021/12/14 11:58:43;;;;;;;4.30;3.40;;;5.00;99.90;;;;;;5030443;28;20204;-71
2021/12/14 12:01:14;;;;;;;3.40;3.20;;;4.90;99.90;;;;;;5032040;28;20204;-72
2021/12/14 12:04:04;;;;;;;5.95;3.92;;;4.90;99.90;;;;;;5031807;28;20196;-72
2021/12/14 12:09:57;;;;;;;3.20;2.88;;;5.00;99.90;;;;;;5028600;28;20204;-71
2021/12/14 12:12:25;;;;;;;3.22;3.00;;;5.10;99.90;;;;;;5031522;28;20184;-72
2021/12/14 12:15:09;;;;;;;2.95;2.75;;;5.30;99.90;;;;;;5030645;28;20239;-73
2021/12/14 12:17:40;;;;;;;2.33;2.22;;;5.30;99.90;;;;;;5015227;28;20185;-72
2021/12/14 12:20:26;;;;;;;2.63;2.47;;;5.60;99.90;;;;;;5012270;28;20201;-72
2021/12/14 12:23:03;;;;;;;2.67;2.47;;;5.80;99.90;;;;;;5016482;28;20204;-72
2021/12/14 12:25:48;;;;;;;2.95;2.75;;;5.80;99.90;;;;;;5026168;28;20276;-72
2021/12/14 12:28:47;;;;;;;2.72;2.58;;;5.80;99.90;;;;;;5012122;28;20239;-72
2021/12/14 12:31:19;;;;;;;2.65;2.40;;;5.80;99.90;;;;;;5021637;28;20323;-72
2021/12/14 12:33:48;;;;;;;2.63;2.50;;;5.80;99.90;;;;;;5012291;28;20181;-73
2021/12/14 12:36:39;;;;;;;2.40;2.30;;;5.70;99.90;;;;;;5027021;28;20219;-72
2021/12/14 12:39:15;;;;;;;1.98;1.88;;;5.70;99.90;;;;;;5028024;28;20219;-73
2021/12/14 12:41:48;;;;;;;2.33;2.22;;;5.80;99.90;;;;;;5031321;28;20196;-70
2021/12/14 12:44:18;;;;;;;2.63;2.42;;;5.70;99.90;;;;;;5031749;28;20174;-72
2021/12/14 12:46:49;;;;;;;2.47;2.38;;;5.70;99.90;;;;;;5030990;28;20175;-72
2021/12/14 12:49:16;;;;;;;3.50;2.05;;;5.60;99.90;;;;;;5032816;28;20207;-72
2021/12/14 12:51:45;;;;;;;4.75;3.22;;;5.60;99.90;;;;;;5019981;28;20272;-73
2021/12/14 12:54:22;;;;;;;3.22;2.35;;;5.60;99.90;;;;;;5018148;28;20189;-73
2021/12/14 12:57:29;;;;;;;2.55;2.40;;;5.70;99.90;;;;;;5032530;28;20176;-72
2021/12/14 13:00:10;;;;;;;2.10;2.00;;;5.70;99.90;;;;;;5030842;28;20188;-73
2021/12/14 13:02:44;;;;;;;3.75;3.45;;;5.60;99.90;;;;;;5034677;28;20570;-72
2021/12/14 13:05:35;;;;;;;2.80;2.60;;;5.70;99.90;;;;;;5034865;28;20259;-73
2021/12/14 13:08:09;;;;;;;2.72;2.53;;;5.60;99.90;;;;;;5015588;28;20691;-72
2021/12/14 13:10:57;;;;;;;2.90;2.42;;;5.60;99.90;;;;;;5030409;28;20184;-72
2021/12/14 13:13:26;;;;;;;2.97;2.78;;;5.40;99.90;;;;;;5015425;28;20659;-72
2021/12/14 13:15:59;;;;;;;3.00;2.80;;;5.50;99.90;;;;;;5015263;28;20196;-71
2021/12/14 13:18:34;;;;;;;2.97;2.75;;;5.40;99.90;;;;;;5032221;28;20232;-72
2021/12/14 13:21:02;;;;;;;3.25;3.03;;;5.30;99.90;;;;;;5035195;28;20192;-73
2021/12/14 13:23:38;;;;;;;3.10;2.90;;;5.40;99.90;;;;;;5035022;28;20212;-72
2021/12/14 13:26:25;;;;;;;2.85;2.65;;;5.50;99.90;;;;;;5030112;28;20177;-71
2021/12/14 13:28:52;;;;;;;3.33;2.80;;;5.50;99.90;;;;;;5032563;28;20196;-70
2021/12/14 13:31:31;;;;;;;3.13;2.72;;;5.60;99.90;;;;;;5033370;28;20272;-72
2021/12/14 13:33:58;;;;;;;2.65;2.45;;;5.60;99.90;;;;;;5032062;28;20206;-71
2021/12/14 13:36:24;;;;;;;3.13;2.92;;;5.70;99.90;;;;;;5033817;28;20200;-71
2021/12/14 13:38:50;;;;;;;2.95;2.75;;;5.70;99.90;;;;;;5033956;28;20224;-72
2021/12/14 13:41:51;;;;;;;2.65;2.45;;;5.50;99.90;;;;;;5031614;28;20299;-71
2021/12/14 13:44:17;;;;;;;3.20;3.00;;;5.40;99.90;;;;;;5017143;28;20175;-72
2021/12/14 13:46:44;;;;;;;3.65;3.10;;;5.40;99.90;;;;;;5033180;28;20632;-70
2021/12/14 13:49:11;;;;;;;3.15;2.95;;;5.30;99.90;;;;;;5033428;28;20206;-72
2021/12/14 13:51:37;;;;;;;3.25;3.05;;;5.20;99.90;;;;;;5032026;28;20216;-71
2021/12/14 13:54:04;;;;;;;3.00;2.60;;;5.10;99.90;;;;;;5031904;28;20270;-71